sensor_id;sensor_type;location;lat;lon;timestamp;pressure;altitude;pressure_sealevel;temperature;humidity
41596;BME280;27283;52.504;13.358;2023-08-24T00:00:24;101460.13;;;19.28;77.72
41596;BME280;27283;52.504;13.358;2023-08-24T00:03:33;101461.81;;;19.36;77.30
41596;BME280;27283;52.504;13.358;2023-08-24T00:06:09;101461.56;;;19.30;77.39
41596;BME280;27283;52.504;13.358;2023-08-24T00:08:42;101456.75;;;19.19;77.99
41596;BME280;27283;52.504;13.358;2023-08-24T00:11:20;101468.06;;;19.23;78.35
41596;BME280;27283;52.504;13.358;2023-08-24T00:13:52;101461.38;;;19.25;78.02
41596;BME280;27283;52.504;13.358;2023-08-24T00:16:25;101460.72;;;19.23;77.66
41596;BME280;27283;52.504;13.358;2023-08-24T00:18:58;101464.31;;;19.24;77.56
41596;BME280;27283;52.504;13.358;2023-08-24T00:21:30;101457.16;;;19.23;77.34
41596;BME280;27283;52.504;13.358;2023-08-24T00:24:03;101460.53;;;19.25;77.98
41596;BME280;27283;52.504;13.358;2023-08-24T00:26:38;101447.09;;;19.23;78.13
41596;BME280;27283;52.504;13.358;2023-08-24T00:29:21;101448.56;;;19.26;77.71
41596;BME280;27283;52.504;13.358;2023-08-24T00:32:07;101444.97;;;19.19;77.91
41596;BME280;27283;52.504;13.358;2023-08-24T00:34:40;101450.44;;;19.19;78.16
41596;BME280;27283;52.504;13.358;2023-08-24T00:37:12;101449.81;;;19.17;78.03
41596;BME280;27283;52.504;13.358;2023-08-24T00:39:45;101451.06;;;19.14;78.47
41596;BME280;27283;52.504;13.358;2023-08-24T00:42:20;101448.53;;;19.12;78.50
41596;BME280;27283;52.504;13.358;2023-08-24T00:44:52;101458.81;;;19.10;78.63
41596;BME280;27283;52.504;13.358;2023-08-24T00:47:27;101452.31;;;19.11;78.81
41596;BME280;27283;52.504;13.358;2023-08-24T00:50:02;101444.34;;;19.10;78.76
41596;BME280;27283;52.504;13.358;2023-08-24T00:52:41;101450.00;;;19.08;79.40
41596;BME280;27283;52.504;13.358;2023-08-24T00:55:14;101451.03;;;19.07;79.33
41596;BME280;27283;52.504;13.358;2023-08-24T00:57:51;101456.50;;;19.07;79.22
41596;BME280;27283;52.504;13.358;2023-08-24T01:00:24;101439.53;;;19.05;79.49
41596;BME280;27283;52.504;13.358;2023-08-24T01:03:30;101446.22;;;19.03;80.00
41596;BME280;27283;52.504;13.358;2023-08-24T01:06:03;101441.81;;;19.02;79.84
41596;BME280;27283;52.504;13.358;2023-08-24T01:08:36;101438.03;;;19.03;80.21
41596;BME280;27283;52.504;13.358;2023-08-24T01:11:14;101445.19;;;19.04;79.96
41596;BME280;27283;52.504;13.358;2023-08-24T01:14:01;101437.63;;;19.06;80.53
41596;BME280;27283;52.504;13.358;2023-08-24T01:16:38;101440.16;;;19.07;80.61
41596;BME280;27283;52.504;13.358;2023-08-24T01:19:25;101438.25;;;19.08;80.77
41596;BME280;27283;52.504;13.358;2023-08-24T01:22:20;101438.50;;;19.13;80.61
41596;BME280;27283;52.504;13.358;2023-08-24T01:25:05;101440.16;;;19.14;80.32
41596;BME280;27283;52.504;13.358;2023-08-24T01:27:43;101443.31;;;19.18;80.21
41596;BME280;27283;52.504;13.358;2023-08-24T01:30:27;101442.69;;;19.22;80.22
41596;BME280;27283;52.504;13.358;2023-08-24T01:33:09;101440.59;;;19.24;80.02
41596;BME280;27283;52.504;13.358;2023-08-24T01:35:42;101441.88;;;19.28;79.79
41596;BME280;27283;52.504;13.358;2023-08-24T01:38:20;101440.00;;;19.36;79.97
41596;BME280;27283;52.504;13.358;2023-08-24T01:41:09;101438.53;;;19.40;79.49
41596;BME280;27283;52.504;13.358;2023-08-24T01:43:46;101444.63;;;19.48;79.59
41596;BME280;27283;52.504;13.358;2023-08-24T01:46:53;101436.03;;;19.58;78.55
41596;BME280;27283;52.504;13.358;2023-08-24T01:49:43;101444.84;;;19.60;77.33
41596;BME280;27283;52.504;13.358;2023-08-24T01:52:16;101446.31;;;19.70;76.79
41596;BME280;27283;52.504;13.358;2023-08-24T01:54:49;101436.25;;;19.77;75.38
41596;BME280;27283;52.504;13.358;2023-08-24T01:57:22;101430.19;;;19.81;74.59
41596;BME280;27283;52.504;13.358;2023-08-24T02:00:26;101436.06;;;19.92;73.47
41596;BME280;27283;52.504;13.358;2023-08-24T02:03:17;101440.25;;;20.01;72.36
41596;BME280;27283;52.504;13.358;2023-08-24T02:05:50;101433.31;;;20.05;72.01
41596;BME280;27283;52.504;13.358;2023-08-24T02:11:59;101429.94;;;20.10;71.17
41596;BME280;27283;52.504;13.358;2023-08-24T02:14:31;101434.97;;;20.13;71.37
41596;BME280;27283;52.504;13.358;2023-08-24T02:17:06;101429.72;;;20.18;71.03
41596;BME280;27283;52.504;13.358;2023-08-24T02:19:39;101430.75;;;20.24;70.06
41596;BME280;27283;52.504;13.358;2023-08-24T02:22:11;101430.94;;;20.29;70.68
41596;BME280;27283;52.504;13.358;2023-08-24T02:24:44;101430.28;;;20.33;69.63
41596;BME280;27283;52.504;13.358;2023-08-24T02:27:16;101429.47;;;20.40;69.78
41596;BME280;27283;52.504;13.358;2023-08-24T02:29:48;101423.78;;;20.41;69.32
41596;BME280;27283;52.504;13.358;2023-08-24T02:32:24;101426.69;;;20.46;69.65
41596;BME280;27283;52.504;13.358;2023-08-24T02:34:58;101429.22;;;20.48;69.48
41596;BME280;27283;52.504;13.358;2023-08-24T02:37:32;101434.25;;;20.51;69.16
41596;BME280;27283;52.504;13.358;2023-08-24T02:40:05;101436.94;;;20.58;69.33
41596;BME280;27283;52.504;13.358;2023-08-24T02:42:38;101431.91;;;20.54;69.85
41596;BME280;27283;52.504;13.358;2023-08-24T02:45:10;101424.97;;;20.59;69.84
41596;BME280;27283;52.504;13.358;2023-08-24T02:47:46;101423.91;;;20.66;70.31
41596;BME280;27283;52.504;13.358;2023-08-24T02:50:18;101420.09;;;20.74;69.76
41596;BME280;27283;52.504;13.358;2023-08-24T02:53:00;101417.56;;;20.79;70.71
41596;BME280;27283;52.504;13.358;2023-08-24T02:55:37;101420.09;;;20.74;70.37
41596;BME280;27283;52.504;13.358;2023-08-24T02:58:09;101419.00;;;20.82;70.12
41596;BME280;27283;52.504;13.358;2023-08-24T03:00:42;101424.25;;;20.83;70.69
41596;BME280;27283;52.504;13.358;2023-08-24T03:03:22;101421.13;;;20.86;71.34
41596;BME280;27283;52.504;13.358;2023-08-24T03:05:59;101415.59;;;20.93;69.29
41596;BME280;27283;52.504;13.358;2023-08-24T03:11:20;101416.56;;;21.05;68.51
41596;BME280;27283;52.504;13.358;2023-08-24T03:13:55;101419.09;;;21.07;67.89
41596;BME280;27283;52.504;13.358;2023-08-24T03:16:30;101431.50;;;21.03;68.44
41596;BME280;27283;52.504;13.358;2023-08-24T03:19:07;101432.16;;;20.98;69.81
41596;BME280;27283;52.504;13.358;2023-08-24T03:21:40;101422.91;;;20.99;68.58
41596;BME280;27283;52.504;13.358;2023-08-24T03:24:12;101429.66;;;20.97;69.17
41596;BME280;27283;52.504;13.358;2023-08-24T03:26:45;101434.66;;;21.06;67.89
41596;BME280;27283;52.504;13.358;2023-08-24T03:29:17;101433.03;;;20.99;69.36
41596;BME280;27283;52.504;13.358;2023-08-24T03:31:50;101432.16;;;21.05;68.40
41596;BME280;27283;52.504;13.358;2023-08-24T03:34:25;101429.19;;;21.06;66.79
41596;BME280;27283;52.504;13.358;2023-08-24T03:36:58;101416.56;;;21.12;67.11
41596;BME280;27283;52.504;13.358;2023-08-24T03:40:05;101410.28;;;21.05;65.53
41596;BME280;27283;52.504;13.358;2023-08-24T03:42:40;101412.34;;;21.10;65.24
41596;BME280;27283;52.504;13.358;2023-08-24T03:45:12;101402.88;;;21.12;64.32
41596;BME280;27283;52.504;13.358;2023-08-24T03:47:45;101407.84;;;21.22;64.92
41596;BME280;27283;52.504;13.358;2023-08-24T03:50:21;101404.09;;;21.16;66.84
41596;BME280;27283;52.504;13.358;2023-08-24T03:52:54;101407.50;;;21.12;63.94
41596;BME280;27283;52.504;13.358;2023-08-24T03:55:26;101403.31;;;21.09;63.87
41596;BME280;27283;52.504;13.358;2023-08-24T03:57:59;101400.59;;;21.09;65.45
41596;BME280;27283;52.504;13.358;2023-08-24T04:00:33;101396.38;;;21.06;63.50
41596;BME280;27283;52.504;13.358;2023-08-24T04:03:06;101402.81;;;21.19;63.03
41596;BME280;27283;52.504;13.358;2023-08-24T04:05:44;101398.91;;;21.08;65.03
41596;BME280;27283;52.504;13.358;2023-08-24T04:08:25;101400.31;;;21.17;63.19
41596;BME280;27283;52.504;13.358;2023-08-24T04:11:07;101404.09;;;21.16;64.76
41596;BME280;27283;52.504;13.358;2023-08-24T04:13:54;101407.25;;;21.20;63.30
41596;BME280;27283;52.504;13.358;2023-08-24T04:16:27;101397.66;;;21.04;63.60
41596;BME280;27283;52.504;13.358;2023-08-24T04:18:59;101405.69;;;20.99;66.59
41596;BME280;27283;52.504;13.358;2023-08-24T04:21:35;101405.41;;;21.07;64.13
41596;BME280;27283;52.504;13.358;2023-08-24T04:24:07;101402.75;;;20.94;66.59
41596;BME280;27283;52.504;13.358;2023-08-24T04:26:40;101399.38;;;20.98;64.40
41596;BME280;27283;52.504;13.358;2023-08-24T04:29:18;101409.69;;;20.96;63.56
41596;BME280;27283;52.504;13.358;2023-08-24T04:31:51;101404.59;;;21.06;62.45
41596;BME280;27283;52.504;13.358;2023-08-24T04:34:28;101401.34;;;21.16;61.51
41596;BME280;27283;52.504;13.358;2023-08-24T04:37:07;101398.97;;;21.27;62.16
41596;BME280;27283;52.504;13.358;2023-08-24T04:39:39;101401.91;;;21.32;61.14
41596;BME280;27283;52.504;13.358;2023-08-24T04:42:12;101404.34;;;21.40;61.10
41596;BME280;27283;52.504;13.358;2023-08-24T04:44:44;101410.34;;;21.23;62.41
41596;BME280;27283;52.504;13.358;2023-08-24T04:47:16;101413.66;;;21.32;64.76
41596;BME280;27283;52.504;13.358;2023-08-24T04:49:48;101406.16;;;21.21;62.71
41596;BME280;27283;52.504;13.358;2023-08-24T04:52:24;101408.13;;;21.14;65.20
41596;BME280;27283;52.504;13.358;2023-08-24T04:54:56;101409.63;;;21.10;63.25
41596;BME280;27283;52.504;13.358;2023-08-24T04:57:29;101408.28;;;21.19;64.45
41596;BME280;27283;52.504;13.358;2023-08-24T05:00:15;101412.28;;;21.16;64.08
41596;BME280;27283;52.504;13.358;2023-08-24T05:02:56;101418.84;;;21.15;64.29
41596;BME280;27283;52.504;13.358;2023-08-24T05:05:30;101418.13;;;21.27;62.50
41596;BME280;27283;52.504;13.358;2023-08-24T05:08:06;101423.22;;;21.23;65.60
41596;BME280;27283;52.504;13.358;2023-08-24T05:10:41;101424.63;;;21.32;63.82
41596;BME280;27283;52.504;13.358;2023-08-24T05:13:13;101427.50;;;21.37;64.76
41596;BME280;27283;52.504;13.358;2023-08-24T05:15:51;101421.81;;;21.71;62.81
41596;BME280;27283;52.504;13.358;2023-08-24T05:18:41;101417.44;;;21.63;65.58
41596;BME280;27283;52.504;13.358;2023-08-24T05:21:13;101414.09;;;21.86;63.69
41596;BME280;27283;52.504;13.358;2023-08-24T05:23:48;101415.09;;;21.92;64.63
41596;BME280;27283;52.504;13.358;2023-08-24T05:26:20;101413.19;;;21.92;63.08
41596;BME280;27283;52.504;13.358;2023-08-24T05:29:01;101423.38;;;21.85;68.35
41596;BME280;27283;52.504;13.358;2023-08-24T05:31:33;101423.69;;;21.95;63.23
41596;BME280;27283;52.504;13.358;2023-08-24T05:34:06;101425.75;;;22.00;61.10
41596;BME280;27283;52.504;13.358;2023-08-24T05:36:38;101419.16;;;22.08;63.38
41596;BME280;27283;52.504;13.358;2023-08-24T05:39:13;101419.38;;;22.25;63.21
41596;BME280;27283;52.504;13.358;2023-08-24T05:41:51;101419.28;;;22.38;62.26
41596;BME280;27283;52.504;13.358;2023-08-24T05:44:23;101421.25;;;22.31;63.92
41596;BME280;27283;52.504;13.358;2023-08-24T05:46:57;101415.84;;;22.43;63.12
41596;BME280;27283;52.504;13.358;2023-08-24T05:49:33;101416.41;;;22.33;65.21
41596;BME280;27283;52.504;13.358;2023-08-24T05:52:07;101422.22;;;22.55;59.70
41596;BME280;27283;52.504;13.358;2023-08-24T05:54:47;101423.69;;;22.58;59.23
41596;BME280;27283;52.504;13.358;2023-08-24T05:57:19;101428.84;;;22.47;61.28
41596;BME280;27283;52.504;13.358;2023-08-24T05:59:52;101416.28;;;22.58;63.76
41596;BME280;27283;52.504;13.358;2023-08-24T06:02:24;101422.28;;;22.67;61.43
41596;BME280;27283;52.504;13.358;2023-08-24T06:04:59;101418.19;;;22.58;61.91
41596;BME280;27283;52.504;13.358;2023-08-24T06:07:32;101413.38;;;22.72;60.51
41596;BME280;27283;52.504;13.358;2023-08-24T06:10:10;101416.47;;;22.94;59.88
41596;BME280;27283;52.504;13.358;2023-08-24T06:12:43;101415.31;;;23.01;57.82
41596;BME280;27283;52.504;13.358;2023-08-24T06:15:16;101419.69;;;22.91;61.47
41596;BME280;27283;52.504;13.358;2023-08-24T06:17:52;101422.22;;;23.04;60.32
41596;BME280;27283;52.504;13.358;2023-08-24T06:20:25;101420.31;;;23.35;58.24
41596;BME280;27283;52.504;13.358;2023-08-24T06:22:57;101417.41;;;24.19;54.79
41596;BME280;27283;52.504;13.358;2023-08-24T06:25:33;101418.97;;;25.25;51.31
41596;BME280;27283;52.504;13.358;2023-08-24T06:28:05;101419.13;;;25.98;48.15
41596;BME280;27283;52.504;13.358;2023-08-24T06:30:40;101416.22;;;26.49;48.35
41596;BME280;27283;52.504;13.358;2023-08-24T06:33:19;101412.53;;;26.83;46.44
41596;BME280;27283;52.504;13.358;2023-08-24T06:36:07;101412.00;;;27.13;45.95
41596;BME280;27283;52.504;13.358;2023-08-24T06:39:00;101415.41;;;27.96;43.44
41596;BME280;27283;52.504;13.358;2023-08-24T06:41:38;101414.78;;;28.21;42.90
41596;BME280;27283;52.504;13.358;2023-08-24T06:44:11;101407.72;;;28.51;41.17
41596;BME280;27283;52.504;13.358;2023-08-24T06:46:47;101412.78;;;28.74;41.38
41596;BME280;27283;52.504;13.358;2023-08-24T06:49:38;101427.78;;;28.25;42.06
41596;BME280;27283;52.504;13.358;2023-08-24T06:52:34;101420.66;;;28.35;42.74
41596;BME280;27283;52.504;13.358;2023-08-24T06:55:19;101425.91;;;28.36;42.40
41596;BME280;27283;52.504;13.358;2023-08-24T06:58:04;101425.34;;;28.34;41.57
41596;BME280;27283;52.504;13.358;2023-08-24T07:00:57;101435.94;;;28.53;42.10
41596;BME280;27283;52.504;13.358;2023-08-24T07:03:41;101434.00;;;28.53;40.44
41596;BME280;27283;52.504;13.358;2023-08-24T07:06:34;101435.19;;;28.73;41.20
41596;BME280;27283;52.504;13.358;2023-08-24T07:09:06;101432.44;;;28.73;40.81
41596;BME280;27283;52.504;13.358;2023-08-24T07:11:39;101441.63;;;28.89;43.05
41596;BME280;27283;52.504;13.358;2023-08-24T07:14:14;101434.13;;;28.79;40.04
41596;BME280;27283;52.504;13.358;2023-08-24T07:16:47;101439.09;;;28.77;41.27
41596;BME280;27283;52.504;13.358;2023-08-24T07:19:20;101435.06;;;29.15;41.51
41596;BME280;27283;52.504;13.358;2023-08-24T07:21:52;101427.06;;;29.29;39.66
41596;BME280;27283;52.504;13.358;2023-08-24T07:24:25;101432.03;;;29.53;39.97
41596;BME280;27283;52.504;13.358;2023-08-24T07:27:13;101435.34;;;28.45;39.17
41596;BME280;27283;52.504;13.358;2023-08-24T07:30:07;101425.97;;;28.46;39.92
41596;BME280;27283;52.504;13.358;2023-08-24T07:33:06;101413.75;;;28.37;41.56
41596;BME280;27283;52.504;13.358;2023-08-24T07:35:52;101430.53;;;28.73;41.56
41596;BME280;27283;52.504;13.358;2023-08-24T07:38:28;101421.09;;;28.69;40.49
41596;BME280;27283;52.504;13.358;2023-08-24T07:41:07;101414.78;;;28.84;39.13
41596;BME280;27283;52.504;13.358;2023-08-24T07:43:52;101410.44;;;29.45;38.63
41596;BME280;27283;52.504;13.358;2023-08-24T07:46:48;101418.94;;;28.92;40.34
41596;BME280;27283;52.504;13.358;2023-08-24T07:49:29;101423.22;;;27.99;40.05
41596;BME280;27283;52.504;13.358;2023-08-24T07:52:04;101416.38;;;28.11;42.25
41596;BME280;27283;52.504;13.358;2023-08-24T07:54:36;101413.16;;;28.25;40.28
41596;BME280;27283;52.504;13.358;2023-08-24T07:57:09;101416.81;;;29.25;38.43
41596;BME280;27283;52.504;13.358;2023-08-24T07:59:41;101417.91;;;29.24;40.00
41596;BME280;27283;52.504;13.358;2023-08-24T08:02:25;101417.91;;;29.29;40.61
41596;BME280;27283;52.504;13.358;2023-08-24T08:05:15;101413.19;;;29.24;38.89
41596;BME280;27283;52.504;13.358;2023-08-24T08:07:51;101411.22;;;29.20;39.69
41596;BME280;27283;52.504;13.358;2023-08-24T08:10:24;101414.75;;;28.79;38.54
41596;BME280;27283;52.504;13.358;2023-08-24T08:12:56;101416.59;;;27.67;41.30
41596;BME280;27283;52.504;13.358;2023-08-24T08:15:28;101427.03;;;27.28;42.49
41596;BME280;27283;52.504;13.358;2023-08-24T08:18:04;101412.31;;;27.22;42.38
41596;BME280;27283;52.504;13.358;2023-08-24T08:20:39;101411.38;;;27.06;43.22
41596;BME280;27283;52.504;13.358;2023-08-24T08:23:22;101403.44;;;27.42;41.49
41596;BME280;27283;52.504;13.358;2023-08-24T08:26:00;101397.69;;;27.49;41.70
41596;BME280;27283;52.504;13.358;2023-08-24T08:28:52;101397.66;;;27.16;41.79
41596;BME280;27283;52.504;13.358;2023-08-24T08:31:57;101395.69;;;26.62;42.58
41596;BME280;27283;52.504;13.358;2023-08-24T08:34:58;101394.59;;;26.85;44.58
41596;BME280;27283;52.504;13.358;2023-08-24T08:37:43;101391.97;;;27.01;43.81
41596;BME280;27283;52.504;13.358;2023-08-24T08:40:20;101387.88;;;26.76;45.41
41596;BME280;27283;52.504;13.358;2023-08-24T08:42:58;101380.56;;;26.65;46.85
41596;BME280;27283;52.504;13.358;2023-08-24T08:45:41;101388.50;;;26.61;48.11
41596;BME280;27283;52.504;13.358;2023-08-24T08:48:45;101380.19;;;26.56;47.07
41596;BME280;27283;52.504;13.358;2023-08-24T08:51:45;101375.53;;;26.84;42.13
41596;BME280;27283;52.504;13.358;2023-08-24T08:54:29;101378.50;;;26.77;45.24
41596;BME280;27283;52.504;13.358;2023-08-24T08:57:06;101370.59;;;26.86;43.74
41596;BME280;27283;52.504;13.358;2023-08-24T08:59:50;101370.28;;;26.82;45.22
41596;BME280;27283;52.504;13.358;2023-08-24T09:02:29;101377.63;;;26.72;45.91
41596;BME280;27283;52.504;13.358;2023-08-24T09:05:15;101369.84;;;26.46;49.43
41596;BME280;27283;52.504;13.358;2023-08-24T09:07:53;101371.53;;;26.25;45.52
41596;BME280;27283;52.504;13.358;2023-08-24T09:10:27;101364.66;;;26.06;43.99
41596;BME280;27283;52.504;13.358;2023-08-24T09:13:53;101370.25;;;26.77;45.00
41596;BME280;27283;52.504;13.358;2023-08-24T09:16:47;101371.91;;;27.33;44.41
41596;BME280;27283;52.504;13.358;2023-08-24T09:19:41;101368.81;;;27.02;42.45
41596;BME280;27283;52.504;13.358;2023-08-24T09:22:15;101355.41;;;26.83;43.77
41596;BME280;27283;52.504;13.358;2023-08-24T09:24:51;101355.94;;;26.58;45.50
41596;BME280;27283;52.504;13.358;2023-08-24T09:27:23;101349.78;;;26.51;46.24
41596;BME280;27283;52.504;13.358;2023-08-24T09:29:56;101351.91;;;26.93;43.82
41596;BME280;27283;52.504;13.358;2023-08-24T09:32:42;101338.63;;;27.55;40.94
41596;BME280;27283;52.504;13.358;2023-08-24T09:35:21;101341.53;;;28.23;40.26
41596;BME280;27283;52.504;13.358;2023-08-24T09:37:59;101340.78;;;28.59;39.15
41596;BME280;27283;52.504;13.358;2023-08-24T09:40:51;101334.41;;;28.43;38.67
41596;BME280;27283;52.504;13.358;2023-08-24T09:43:24;101329.34;;;28.24;39.99
41596;BME280;27283;52.504;13.358;2023-08-24T09:46:12;101330.41;;;29.38;38.33
41596;BME280;27283;52.504;13.358;2023-08-24T09:48:58;101331.94;;;30.61;34.77
41596;BME280;27283;52.504;13.358;2023-08-24T09:51:32;101328.34;;;31.64;33.35
41596;BME280;27283;52.504;13.358;2023-08-24T09:54:10;101335.44;;;31.46;34.26
41596;BME280;27283;52.504;13.358;2023-08-24T09:56:48;101315.94;;;31.51;34.98
41596;BME280;27283;52.504;13.358;2023-08-24T09:59:35;101313.81;;;30.74;34.22
41596;BME280;27283;52.504;13.358;2023-08-24T10:02:18;101316.66;;;30.64;34.52
41596;BME280;27283;52.504;13.358;2023-08-24T10:04:58;101315.56;;;31.04;32.90
41596;BME280;27283;52.504;13.358;2023-08-24T10:07:37;101322.47;;;31.36;32.62
41596;BME280;27283;52.504;13.358;2023-08-24T10:10:40;101306.69;;;31.32;33.84
41596;BME280;27283;52.504;13.358;2023-08-24T10:13:39;101310.03;;;31.63;32.22
41596;BME280;27283;52.504;13.358;2023-08-24T10:16:51;101302.50;;;32.12;32.82
41596;BME280;27283;52.504;13.358;2023-08-24T10:19:41;101306.75;;;32.85;30.65
41596;BME280;27283;52.504;13.358;2023-08-24T10:22:17;101311.91;;;32.35;34.33
41596;BME280;27283;52.504;13.358;2023-08-24T10:26:01;101311.16;;;32.48;32.18
41596;BME280;27283;52.504;13.358;2023-08-24T10:29:02;101308.31;;;32.54;31.67
41596;BME280;27283;52.504;13.358;2023-08-24T10:31:49;101304.69;;;31.91;33.19
41596;BME280;27283;52.504;13.358;2023-08-24T10:34:36;101303.28;;;31.69;33.44
41596;BME280;27283;52.504;13.358;2023-08-24T10:37:27;101294.88;;;31.74;33.13
41596;BME280;27283;52.504;13.358;2023-08-24T10:40:33;101310.53;;;32.13;33.04
41596;BME280;27283;52.504;13.358;2023-08-24T10:43:09;101299.47;;;31.31;33.79
41596;BME280;27283;52.504;13.358;2023-08-24T10:45:58;101307.78;;;32.32;33.34
41596;BME280;27283;52.504;13.358;2023-08-24T10:49:03;101306.06;;;33.27;29.87
41596;BME280;27283;52.504;13.358;2023-08-24T10:52:35;101306.72;;;34.07;29.36
41596;BME280;27283;52.504;13.358;2023-08-24T10:55:27;101290.63;;;32.25;31.30
41596;BME280;27283;52.504;13.358;2023-08-24T10:58:37;101297.22;;;32.10;33.11
41596;BME280;27283;52.504;13.358;2023-08-24T11:01:25;101290.88;;;32.48;31.67
41596;BME280;27283;52.504;13.358;2023-08-24T11:04:11;101290.53;;;32.88;31.71
41596;BME280;27283;52.504;13.358;2023-08-24T11:06:59;101274.91;;;32.35;32.21
41596;BME280;27283;52.504;13.358;2023-08-24T11:09:51;101273.56;;;32.70;31.63
41596;BME280;27283;52.504;13.358;2023-08-24T11:13:12;101269.34;;;32.54;31.57
41596;BME280;27283;52.504;13.358;2023-08-24T11:15:54;101254.59;;;32.15;33.07
41596;BME280;27283;52.504;13.358;2023-08-24T11:18:48;101244.47;;;32.43;32.20
41596;BME280;27283;52.504;13.358;2023-08-24T11:21:48;101241.59;;;32.48;33.01
41596;BME280;27283;52.504;13.358;2023-08-24T11:24:47;101242.69;;;31.90;32.77
41596;BME280;27283;52.504;13.358;2023-08-24T11:27:25;101243.22;;;31.92;33.61
41596;BME280;27283;52.504;13.358;2023-08-24T11:30:35;101240.94;;;32.90;31.51
41596;BME280;27283;52.504;13.358;2023-08-24T11:33:14;101238.41;;;33.07;32.11
41596;BME280;27283;52.504;13.358;2023-08-24T11:36:00;101227.47;;;32.45;32.75
41596;BME280;27283;52.504;13.358;2023-08-24T11:38:46;101224.50;;;32.74;32.02
41596;BME280;27283;52.504;13.358;2023-08-24T11:41:33;101217.59;;;32.33;32.95
41596;BME280;27283;52.504;13.358;2023-08-24T11:44:49;101214.41;;;32.02;34.19
41596;BME280;27283;52.504;13.358;2023-08-24T11:47:39;101210.81;;;32.59;31.07
41596;BME280;27283;52.504;13.358;2023-08-24T11:50:19;101196.06;;;31.39;33.96
41596;BME280;27283;52.504;13.358;2023-08-24T11:53:00;101191.34;;;31.10;34.34
41596;BME280;27283;52.504;13.358;2023-08-24T11:55:40;101192.16;;;31.83;34.62
41596;BME280;27283;52.504;13.358;2023-08-24T11:58:37;101191.59;;;31.38;33.08
41596;BME280;27283;52.504;13.358;2023-08-24T12:01:21;101187.28;;;30.97;35.76
41596;BME280;27283;52.504;13.358;2023-08-24T12:04:08;101184.25;;;30.99;34.42
41596;BME280;27283;52.504;13.358;2023-08-24T12:06:46;101185.38;;;30.63;36.03
41596;BME280;27283;52.504;13.358;2023-08-24T12:09:32;101181.28;;;30.16;36.62
41596;BME280;27283;52.504;13.358;2023-08-24T12:12:04;101187.53;;;30.71;36.00
41596;BME280;27283;52.504;13.358;2023-08-24T12:14:43;101193.69;;;30.68;37.32
41596;BME280;27283;52.504;13.358;2023-08-24T12:17:21;101190.34;;;31.01;35.46
41596;BME280;27283;52.504;13.358;2023-08-24T12:19:58;101179.78;;;31.27;34.26
41596;BME280;27283;52.504;13.358;2023-08-24T12:22:37;101175.75;;;31.14;35.76
41596;BME280;27283;52.504;13.358;2023-08-24T12:28:29;101170.66;;;30.92;34.25
41596;BME280;27283;52.504;13.358;2023-08-24T12:31:05;101162.56;;;31.01;34.00
41596;BME280;27283;52.504;13.358;2023-08-24T12:33:43;101155.69;;;30.93;33.58
41596;BME280;27283;52.504;13.358;2023-08-24T12:36:18;101160.53;;;30.53;35.15
41596;BME280;27283;52.504;13.358;2023-08-24T12:39:04;101164.59;;;30.61;35.29
41596;BME280;27283;52.504;13.358;2023-08-24T12:41:44;101157.25;;;30.06;35.98
41596;BME280;27283;52.504;13.358;2023-08-24T12:44:30;101152.91;;;30.29;35.64
41596;BME280;27283;52.504;13.358;2023-08-24T12:47:26;101136.56;;;30.22;37.56
41596;BME280;27283;52.504;13.358;2023-08-24T12:49:59;101133.41;;;30.00;37.14
41596;BME280;27283;52.504;13.358;2023-08-24T12:52:37;101131.03;;;29.88;36.54
41596;BME280;27283;52.504;13.358;2023-08-24T12:55:18;101132.19;;;30.16;34.63
41596;BME280;27283;52.504;13.358;2023-08-24T12:58:12;101129.09;;;30.23;35.97
41596;BME280;27283;52.504;13.358;2023-08-24T13:00:54;101118.22;;;29.92;36.63
41596;BME280;27283;52.504;13.358;2023-08-24T13:03:36;101112.47;;;29.08;37.71
41596;BME280;27283;52.504;13.358;2023-08-24T13:06:19;101110.41;;;29.49;37.80
41596;BME280;27283;52.504;13.358;2023-08-24T13:08:53;101108.69;;;29.59;38.56
41596;BME280;27283;52.504;13.358;2023-08-24T13:11:26;101100.03;;;29.70;38.58
41596;BME280;27283;52.504;13.358;2023-08-24T13:14:04;101093.09;;;29.73;36.84
41596;BME280;27283;52.504;13.358;2023-08-24T13:17:01;101089.28;;;30.09;36.93
41596;BME280;27283;52.504;13.358;2023-08-24T13:19:59;101092.78;;;30.19;35.90
41596;BME280;27283;52.504;13.358;2023-08-24T13:22:44;101087.78;;;30.21;36.38
41596;BME280;27283;52.504;13.358;2023-08-24T13:25:39;101078.34;;;30.22;36.20
41596;BME280;27283;52.504;13.358;2023-08-24T13:28:34;101075.72;;;30.42;36.08
41596;BME280;27283;52.504;13.358;2023-08-24T13:31:31;101074.66;;;30.32;36.23
41596;BME280;27283;52.504;13.358;2023-08-24T13:34:20;101067.34;;;30.12;36.07
41596;BME280;27283;52.504;13.358;2023-08-24T13:37:24;101056.03;;;30.38;35.40
41596;BME280;27283;52.504;13.358;2023-08-24T13:41:15;101045.22;;;30.36;35.29
41596;BME280;27283;52.504;13.358;2023-08-24T13:43:47;101051.09;;;30.30;35.44
41596;BME280;27283;52.504;13.358;2023-08-24T13:46:39;101038.91;;;30.31;35.41
41596;BME280;27283;52.504;13.358;2023-08-24T13:49:25;101039.69;;;30.36;35.29
41596;BME280;27283;52.504;13.358;2023-08-24T13:52:16;101044.44;;;30.31;35.71
41596;BME280;27283;52.504;13.358;2023-08-24T13:54:48;101027.41;;;30.13;35.85
41596;BME280;27283;52.504;13.358;2023-08-24T13:57:55;101032.41;;;30.11;36.42
41596;BME280;27283;52.504;13.358;2023-08-24T14:04:29;101009.09;;;29.83;36.02
41596;BME280;27283;52.504;13.358;2023-08-24T14:07:02;101013.16;;;29.96;35.54